Time;durP1;ratioP1;P1;durP2;ratioP2;P2;SDS_P1;SDS_P2;PMS_P1;PMS_P2;Temp;Humidity;BMP_temperature;BMP_pressure;BME280_temperature;BME280_humidity;BME280_pressure;Samples;Min_cycle;Max_cycle;Signal;HPM_P1;HPM_P2
2022/04/27 00:00:21;;;;;;;1.10;1.00;;;11.20;99.90;;;;;;6132720;29;20837;-64
2022/04/27 00:03:25;;;;;;;1.77;0.60;;;11.10;99.90;;;;;;6132451;29;20975;-63
2022/04/27 00:06:28;;;;;;;1.00;0.90;;;11.10;99.90;;;;;;6128131;29;20479;-63
2022/04/27 00:09:31;;;;;;;1.10;0.70;;;11.10;99.90;;;;;;6132721;29;20476;-63
2022/04/27 00:12:36;;;;;;;2.00;0.80;;;11.00;99.90;;;;;;6132392;29;20486;-64
2022/04/27 00:15:40;;;;;;;1.73;0.80;;;11.00;99.90;;;;;;6132137;29;20779;-62
2022/04/27 00:18:43;;;;;;;0.93;0.63;;;11.00;99.90;;;;;;6132353;29;20991;-66
2022/04/27 00:21:47;;;;;;;0.93;0.83;;;11.00;99.90;;;;;;6132254;29;20776;-64
2022/04/27 00:24:50;;;;;;;0.87;0.60;;;11.10;99.90;;;;;;6132349;29;20484;-65
2022/04/27 00:27:53;;;;;;;2.10;0.77;;;11.10;99.90;;;;;;6132331;29;20967;-64
2022/04/27 00:30:57;;;;;;;0.70;0.70;;;11.10;99.90;;;;;;6131877;29;20974;-65
2022/04/27 00:34:01;;;;;;;1.13;0.70;;;11.10;99.90;;;;;;6131825;29;20823;-64
2022/04/27 00:37:04;;;;;;;1.27;0.70;;;11.10;99.90;;;;;;6131804;29;20804;-63
2022/04/27 00:40:08;;;;;;;1.00;0.83;;;11.10;99.90;;;;;;6130732;29;20811;-66
2022/04/27 00:43:14;;;;;;;0.67;0.67;;;11.20;99.90;;;;;;6130091;29;20491;-66
2022/04/27 00:46:19;;;;;;;0.90;0.80;;;11.30;99.90;;;;;;6130350;29;20479;-66
2022/04/27 00:49:22;;;;;;;1.50;0.80;;;11.30;99.90;;;;;;6130073;29;20527;-66
2022/04/27 00:52:26;;;;;;;0.80;0.80;;;11.40;99.90;;;;;;6130019;29;20488;-65
2022/04/27 00:55:30;;;;;;;1.90;1.00;;;11.30;99.90;;;;;;6130846;29;20476;-65
2022/04/27 00:58:33;;;;;;;1.47;0.90;;;11.30;99.90;;;;;;6131614;29;20486;-65
2022/04/27 01:01:55;;;;;;;1.03;0.83;;;11.30;99.90;;;;;;6116425;29;20490;-65
2022/04/27 01:04:58;;;;;;;1.27;1.00;;;11.30;99.90;;;;;;6132373;29;20495;-65
2022/04/27 01:08:02;;;;;;;1.60;1.10;;;11.30;99.90;;;;;;6121008;28;20936;-65
2022/04/27 01:11:06;;;;;;;0.90;0.90;;;11.40;99.90;;;;;;6131472;29;20479;-65
2022/04/27 01:14:09;;;;;;;1.33;0.90;;;11.30;99.90;;;;;;6131411;29;20463;-65
2022/04/27 01:17:14;;;;;;;1.80;0.80;;;11.30;99.90;;;;;;6131130;29;20452;-65
2022/04/27 01:20:17;;;;;;;1.50;0.80;;;11.30;99.90;;;;;;6131452;29;20459;-65
2022/04/27 01:23:22;;;;;;;1.13;0.70;;;11.30;99.90;;;;;;6130867;29;20475;-65
2022/04/27 01:26:25;;;;;;;4.40;1.33;;;11.30;99.90;;;;;;6130622;29;20935;-65
2022/04/27 01:29:29;;;;;;;3.17;1.20;;;11.40;99.90;;;;;;6131267;29;20956;-62
2022/04/27 01:32:32;;;;;;;2.00;1.20;;;11.40;99.90;;;;;;6131464;29;20486;-66
2022/04/27 01:35:35;;;;;;;1.80;1.10;;;11.30;99.90;;;;;;6131577;29;20472;-68
2022/04/27 01:38:41;;;;;;;1.60;1.17;;;10.90;99.90;;;;;;6131584;29;20805;-67
2022/04/27 01:41:45;;;;;;;1.00;0.87;;;10.80;99.90;;;;;;6130248;29;20960;-68
2022/04/27 01:44:48;;;;;;;1.20;1.10;;;10.80;99.90;;;;;;6129877;29;20476;-67
2022/04/27 01:47:53;;;;;;;1.10;1.00;;;10.90;99.90;;;;;;6129811;29;20483;-67
2022/04/27 01:50:56;;;;;;;2.00;1.50;;;10.90;99.90;;;;;;6129079;29;20483;-67
2022/04/27 01:54:15;;;;;;;1.20;1.10;;;10.90;99.90;;;;;;6128920;29;20479;-67
2022/04/27 01:57:18;;;;;;;1.60;1.20;;;10.90;99.90;;;;;;6129328;29;20472;-67
2022/04/27 02:00:22;;;;;;;1.30;1.20;;;10.90;99.90;;;;;;6129897;29;20486;-63
2022/04/27 02:03:25;;;;;;;1.00;0.90;;;10.90;99.90;;;;;;6129550;29;20483;-66
2022/04/27 02:06:29;;;;;;;2.00;1.10;;;10.80;99.90;;;;;;6128861;29;20476;-67
2022/04/27 02:09:34;;;;;;;1.87;1.20;;;10.60;99.90;;;;;;6128974;29;20480;-68
2022/04/27 02:12:37;;;;;;;1.43;1.30;;;10.70;99.90;;;;;;6124167;29;20480;-64
2022/04/27 02:15:40;;;;;;;1.30;1.20;;;10.60;99.90;;;;;;6128870;28;20475;-64
2022/04/27 02:18:43;;;;;;;2.13;1.47;;;10.60;99.90;;;;;;6128940;29;20490;-64
2022/04/27 02:21:47;;;;;;;3.03;1.30;;;10.60;99.90;;;;;;6128220;29;20498;-63
2022/04/27 02:24:51;;;;;;;1.80;1.43;;;10.70;99.90;;;;;;6128085;29;20483;-64
2022/04/27 02:27:55;;;;;;;1.73;1.37;;;10.70;99.90;;;;;;6128336;29;20483;-65
2022/04/27 02:30:58;;;;;;;5.33;1.70;;;10.70;99.90;;;;;;6127920;29;20623;-64
2022/04/27 02:34:02;;;;;;;1.90;1.80;;;10.70;99.90;;;;;;6129181;29;20646;-64
2022/04/27 02:37:06;;;;;;;2.03;1.57;;;10.70;99.90;;;;;;6129296;29;20495;-64
2022/04/27 02:40:11;;;;;;;2.40;2.00;;;10.70;99.90;;;;;;6129493;29;20530;-64
2022/04/27 02:43:14;;;;;;;2.30;2.10;;;10.70;99.90;;;;;;6129004;29;20475;-64
2022/04/27 02:46:17;;;;;;;1.87;1.73;;;10.70;99.90;;;;;;6129361;29;20483;-63
2022/04/27 02:52:40;;;;;;;6.03;2.47;;;10.60;99.90;;;;;;6128258;29;20492;-63
2022/04/27 02:55:45;;;;;;;4.40;2.30;;;10.50;99.90;;;;;;6129231;29;20476;-63
2022/04/27 02:58:48;;;;;;;2.13;1.83;;;10.40;99.90;;;;;;6129134;29;20488;-63
2022/04/27 03:01:51;;;;;;;2.10;1.83;;;10.40;99.90;;;;;;6129086;29;20476;-63
2022/04/27 03:04:55;;;;;;;3.23;2.60;;;10.40;99.90;;;;;;6128950;29;20482;-63
2022/04/27 03:07:58;;;;;;;3.90;2.50;;;10.40;99.90;;;;;;6129184;29;21004;-63
2022/04/27 03:11:03;;;;;;;3.13;1.97;;;10.50;99.90;;;;;;6127054;28;20460;-63
2022/04/27 03:14:06;;;;;;;2.10;1.50;;;10.40;99.90;;;;;;6127229;29;20558;-63
2022/04/27 03:17:09;;;;;;;1.30;1.20;;;10.50;99.90;;;;;;6123417;29;20455;-63
2022/04/27 03:20:12;;;;;;;1.97;1.80;;;10.40;99.90;;;;;;6127950;29;20443;-63
2022/04/27 03:23:16;;;;;;;1.50;1.40;;;10.30;99.90;;;;;;6127182;29;20939;-63
2022/04/27 03:26:21;;;;;;;3.87;2.17;;;10.30;99.90;;;;;;6128884;29;20452;-63
2022/04/27 03:29:24;;;;;;;3.90;2.03;;;10.30;99.90;;;;;;6129257;29;20808;-63
2022/04/27 03:32:27;;;;;;;2.33;2.13;;;10.40;99.90;;;;;;6128622;29;20476;-63
2022/04/27 03:35:30;;;;;;;2.60;2.30;;;10.40;99.90;;;;;;6128373;29;20833;-63
2022/04/27 03:38:33;;;;;;;2.57;1.70;;;10.40;99.90;;;;;;6127808;29;20472;-63
2022/04/27 03:41:38;;;;;;;4.07;2.50;;;10.40;99.90;;;;;;6128792;29;20487;-63
2022/04/27 03:44:41;;;;;;;1.90;1.80;;;10.50;99.90;;;;;;6128944;29;20487;-63
2022/04/27 03:47:44;;;;;;;2.90;1.73;;;10.40;99.90;;;;;;6129119;28;20584;-63
2022/04/27 03:50:47;;;;;;;2.53;1.40;;;10.40;99.90;;;;;;6129608;29;20475;-63
2022/04/27 03:53:51;;;;;;;1.70;1.60;;;10.50;99.90;;;;;;6130270;28;20504;-63
2022/04/27 03:56:55;;;;;;;1.47;1.37;;;10.50;99.90;;;;;;6129581;29;20467;-63
2022/04/27 03:59:58;;;;;;;1.73;1.53;;;10.60;99.90;;;;;;6129162;28;20479;-63
2022/04/27 04:03:02;;;;;;;1.60;1.50;;;10.40;99.90;;;;;;6129603;29;20475;-63
2022/04/27 04:06:05;;;;;;;1.50;1.40;;;10.50;99.90;;;;;;6132996;28;20475;-63
2022/04/27 04:09:09;;;;;;;1.77;1.67;;;10.40;99.90;;;;;;6132751;29;20480;-63
2022/04/27 04:12:15;;;;;;;1.63;1.53;;;10.50;99.90;;;;;;6132196;28;21061;-62
2022/04/27 04:15:18;;;;;;;2.17;2.00;;;10.60;99.90;;;;;;6132665;29;20486;-62
2022/04/27 04:18:21;;;;;;;3.03;1.73;;;10.70;99.90;;;;;;6132151;29;20479;-63
2022/04/27 04:21:26;;;;;;;2.40;2.20;;;10.70;99.90;;;;;;6123559;29;20480;-64
2022/04/27 04:24:29;;;;;;;2.47;1.97;;;10.80;99.90;;;;;;6131928;28;20954;-64
2022/04/27 04:30:57;;;;;;;1.67;1.57;;;10.90;99.90;;;;;;6124860;29;20479;-64
2022/04/27 04:34:00;;;;;;;4.40;1.23;;;10.90;99.90;;;;;;6135053;29;20479;-63
2022/04/27 04:37:04;;;;;;;1.60;1.50;;;10.90;99.90;;;;;;6132301;29;20471;-63
2022/04/27 04:40:08;;;;;;;1.87;1.77;;;10.90;99.90;;;;;;6132132;29;20807;-63
2022/04/27 04:43:13;;;;;;;2.40;1.77;;;11.00;99.90;;;;;;6132103;29;20974;-64
2022/04/27 04:46:16;;;;;;;2.03;1.67;;;11.00;99.90;;;;;;6131690;29;20487;-64
2022/04/27 04:49:20;;;;;;;2.13;1.73;;;11.00;99.90;;;;;;6131716;29;20487;-63
2022/04/27 04:52:23;;;;;;;2.40;2.00;;;11.00;99.90;;;;;;6131783;29;20479;-64
2022/04/27 04:55:27;;;;;;;1.60;1.50;;;11.10;99.90;;;;;;6131520;29;20530;-63
2022/04/27 04:58:31;;;;;;;3.57;1.93;;;11.10;99.90;;;;;;6130863;28;20490;-63
2022/04/27 05:01:34;;;;;;;2.00;1.90;;;11.30;99.90;;;;;;6129904;29;20490;-64
2022/04/27 05:04:38;;;;;;;3.70;2.60;;;11.40;99.90;;;;;;6130137;28;20511;-64
2022/04/27 05:07:41;;;;;;;6.93;3.03;;;11.30;99.90;;;;;;6130109;29;20524;-64
2022/04/27 05:10:44;;;;;;;2.73;2.50;;;11.30;99.90;;;;;;6129853;28;20479;-63
2022/04/27 05:13:49;;;;;;;6.43;3.30;;;11.30;99.90;;;;;;6130530;29;21022;-64
2022/04/27 05:16:52;;;;;;;3.20;2.83;;;11.30;99.90;;;;;;6134619;28;20475;-64
2022/04/27 05:19:55;;;;;;;6.07;2.70;;;11.30;99.90;;;;;;6134439;29;20472;-64
2022/04/27 05:22:58;;;;;;;3.90;3.27;;;11.40;99.90;;;;;;6130790;29;20909;-64
2022/04/27 05:26:03;;;;;;;4.63;2.47;;;11.40;99.90;;;;;;6130717;29;20974;-65
2022/04/27 05:32:28;;;;;;;3.70;3.40;;;11.30;99.90;;;;;;6131142;29;20476;-63
2022/04/27 05:35:31;;;;;;;12.80;4.07;;;11.30;99.90;;;;;;6131274;29;20792;-63
2022/04/27 05:38:34;;;;;;;3.73;3.40;;;11.30;99.90;;;;;;6131017;29;20536;-63
2022/04/27 05:41:38;;;;;;;5.80;4.50;;;11.20;99.90;;;;;;6130625;29;20479;-63
2022/04/27 05:44:43;;;;;;;4.43;3.43;;;11.10;99.90;;;;;;6130372;29;20479;-63
2022/04/27 05:47:46;;;;;;;3.50;3.30;;;11.20;99.90;;;;;;6130619;29;20480;-64
2022/04/27 05:50:49;;;;;;;3.57;3.27;;;11.20;99.90;;;;;;6130632;29;20472;-64
2022/04/27 05:53:52;;;;;;;3.97;3.67;;;11.20;99.90;;;;;;6130221;29;20951;-65
2022/04/27 05:56:55;;;;;;;3.20;2.90;;;11.20;99.90;;;;;;6131033;29;20472;-64
2022/04/27 06:00:00;;;;;;;4.80;3.30;;;11.30;99.90;;;;;;6130452;29;20472;-64
2022/04/27 06:03:03;;;;;;;2.47;2.37;;;11.30;99.90;;;;;;6130617;29;20476;-64
2022/04/27 06:06:07;;;;;;;3.00;2.70;;;11.30;99.90;;;;;;6130168;29;20543;-64
2022/04/27 06:09:10;;;;;;;2.73;2.43;;;11.30;99.90;;;;;;6130153;29;20479;-64
2022/04/27 06:12:13;;;;;;;3.10;2.80;;;11.40;99.90;;;;;;6130049;29;20480;-65
2022/04/27 06:15:17;;;;;;;2.33;2.13;;;11.40;99.90;;;;;;6129925;29;20833;-64
2022/04/27 06:18:26;;;;;;;3.10;2.57;;;11.50;99.90;;;;;;6129702;29;20476;-63
2022/04/27 06:21:31;;;;;;;4.27;2.87;;;11.60;99.90;;;;;;6130240;29;20486;-63
2022/04/27 06:24:34;;;;;;;2.93;2.63;;;11.60;99.90;;;;;;6130112;29;20482;-63
2022/04/27 06:27:38;;;;;;;5.00;2.77;;;11.50;99.90;;;;;;6125521;28;20540;-63
2022/04/27 06:30:42;;;;;;;2.63;2.20;;;11.60;99.90;;;;;;6129985;29;20524;-63
2022/04/27 06:33:45;;;;;;;4.30;2.87;;;11.60;99.90;;;;;;6129813;29;20483;-64
2022/04/27 06:36:49;;;;;;;2.83;2.17;;;11.70;99.90;;;;;;6129969;29;20959;-64
2022/04/27 06:39:52;;;;;;;2.30;2.10;;;11.70;99.90;;;;;;6129483;29;20490;-63
2022/04/27 06:42:56;;;;;;;2.67;2.43;;;11.70;99.90;;;;;;6130297;29;20476;-62
2022/04/27 06:46:01;;;;;;;2.53;2.00;;;11.80;99.90;;;;;;6129865;29;20472;-63
2022/04/27 06:49:04;;;;;;;1.77;1.67;;;11.80;99.90;;;;;;6129339;29;20808;-63
2022/04/27 06:52:08;;;;;;;1.80;1.70;;;11.80;99.90;;;;;;6129139;29;20482;-64
2022/04/27 06:55:11;;;;;;;2.47;1.90;;;11.80;99.90;;;;;;6129604;29;20940;-63
2022/04/27 06:58:14;;;;;;;3.70;2.40;;;11.90;99.90;;;;;;6129098;29;20479;-63
2022/04/27 07:01:19;;;;;;;2.60;2.40;;;11.90;99.90;;;;;;6128792;29;20476;-64
2022/04/27 07:04:22;;;;;;;17.70;2.90;;;11.90;99.90;;;;;;6128765;29;20624;-63
2022/04/27 07:07:25;;;;;;;3.77;2.90;;;12.00;99.90;;;;;;6128858;29;20822;-63
2022/04/27 07:10:36;;;;;;;3.83;2.60;;;12.10;99.90;;;;;;6129984;29;20472;-63
2022/04/27 07:13:39;;;;;;;2.90;2.70;;;12.20;99.90;;;;;;6129183;29;20483;-64
2022/04/27 07:16:44;;;;;;;2.80;2.57;;;12.30;99.90;;;;;;6128700;28;20974;-63
2022/04/27 07:19:47;;;;;;;4.30;3.50;;;12.40;99.90;;;;;;6127909;29;20480;-63
2022/04/27 07:22:50;;;;;;;3.30;3.00;;;12.40;99.90;;;;;;6128314;29;20486;-64
2022/04/27 07:25:53;;;;;;;2.60;2.40;;;12.50;99.90;;;;;;6128981;29;20468;-64
2022/04/27 07:28:56;;;;;;;3.67;2.97;;;12.50;99.90;;;;;;6128598;29;20478;-64
2022/04/27 07:32:01;;;;;;;3.40;3.00;;;12.50;99.90;;;;;;6124575;29;20480;-64
2022/04/27 07:35:05;;;;;;;4.93;3.87;;;12.50;99.90;;;;;;6127005;29;20497;-63
2022/04/27 07:38:08;;;;;;;3.33;3.03;;;12.50;99.90;;;;;;6124728;29;20443;-63
2022/04/27 07:41:12;;;;;;;4.43;3.03;;;12.50;99.90;;;;;;6131639;29;20486;-62
2022/04/27 07:44:15;;;;;;;3.80;3.47;;;12.40;99.90;;;;;;6132559;29;20471;-62
2022/04/27 07:47:20;;;;;;;3.43;3.10;;;12.20;99.90;;;;;;6132615;29;20458;-63
2022/04/27 07:50:23;;;;;;;2.33;2.13;;;12.20;99.90;;;;;;6132607;29;20468;-63
2022/04/27 07:53:26;;;;;;;5.80;2.47;;;11.90;99.90;;;;;;6128450;29;20467;-63
2022/04/27 07:56:29;;;;;;;3.60;2.57;;;11.80;99.90;;;;;;6131200;29;20812;-64
2022/04/27 07:59:32;;;;;;;3.30;3.00;;;11.90;99.90;;;;;;6131089;29;20823;-63
2022/04/27 08:02:37;;;;;;;3.13;2.93;;;11.90;99.90;;;;;;6131633;29;20472;-63
2022/04/27 08:05:40;;;;;;;3.63;2.83;;;11.80;99.90;;;;;;6131480;29;20478;-63
2022/04/27 08:08:44;;;;;;;3.00;2.80;;;11.80;99.90;;;;;;6133303;29;20483;-62
2022/04/27 08:11:47;;;;;;;2.97;2.67;;;11.80;99.90;;;;;;6132574;29;20944;-62
2022/04/27 08:14:51;;;;;;;3.37;3.07;;;11.80;99.90;;;;;;6140214;29;20484;-62
2022/04/27 08:17:58;;;;;;;2.70;2.50;;;11.90;99.90;;;;;;6132750;29;20484;-63
2022/04/27 08:21:21;;;;;;;3.30;2.80;;;12.00;99.90;;;;;;6131768;29;20504;-63
2022/04/27 08:24:24;;;;;;;2.60;2.40;;;12.00;99.90;;;;;;6130899;29;20555;-62
2022/04/27 08:27:27;;;;;;;2.40;2.30;;;12.00;99.90;;;;;;6136024;29;20550;-61
2022/04/27 08:30:31;;;;;;;2.97;2.67;;;12.10;99.90;;;;;;6155690;28;20485;-64
2022/04/27 08:33:36;;;;;;;4.20;2.60;;;12.20;99.90;;;;;;6152300;29;20502;-63
2022/04/27 08:36:39;;;;;;;3.10;2.60;;;12.30;99.90;;;;;;6139496;29;20980;-63
2022/04/27 08:39:42;;;;;;;3.03;2.63;;;12.30;99.90;;;;;;6132396;29;20483;-61
2022/04/27 08:42:47;;;;;;;4.00;3.70;;;12.40;99.90;;;;;;6129371;29;20482;-61
2022/04/27 08:45:52;;;;;;;3.67;3.37;;;12.40;99.90;;;;;;6130669;29;20486;-61
2022/04/27 08:48:56;;;;;;;3.60;3.10;;;12.40;99.90;;;;;;6135516;29;20558;-61
2022/04/27 08:52:00;;;;;;;4.73;3.30;;;12.40;99.90;;;;;;6136672;29;20476;-62
2022/04/27 08:55:04;;;;;;;4.27;3.60;;;12.50;99.90;;;;;;6130707;29;20491;-63
2022/04/27 08:58:09;;;;;;;3.97;3.40;;;12.60;99.90;;;;;;6130622;29;20471;-63
2022/04/27 09:01:32;;;;;;;3.50;3.10;;;12.70;99.90;;;;;;6131550;29;20569;-62
2022/04/27 09:04:37;;;;;;;4.33;3.27;;;12.80;99.90;;;;;;6131801;29;20492;-62
2022/04/27 09:07:41;;;;;;;3.80;3.50;;;12.90;99.90;;;;;;6133406;29;20480;-63
2022/04/27 09:10:45;;;;;;;3.50;3.30;;;13.00;99.90;;;;;;6132587;29;20476;-63
2022/04/27 09:13:52;;;;;;;3.63;3.33;;;13.00;99.90;;;;;;6132704;29;20479;-63
2022/04/27 09:23:40;;;;;;;3.97;3.57;;;13.30;99.90;;;;;;6129121;29;20476;-63
2022/04/27 09:26:43;;;;;;;3.70;3.40;;;13.50;99.90;;;;;;6129913;29;20475;-62
2022/04/27 09:29:57;;;;;;;3.23;3.03;;;13.40;99.90;;;;;;6129565;29;20471;-62
2022/04/27 09:33:00;;;;;;;3.03;2.83;;;13.50;99.90;;;;;;6131448;29;20480;-63
2022/04/27 09:36:22;;;;;;;3.80;3.17;;;13.30;99.90;;;;;;6129837;29;20479;-62
2022/04/27 09:39:26;;;;;;;3.30;3.10;;;13.30;99.90;;;;;;6102260;29;20923;-63
2022/04/27 09:42:33;;;;;;;4.73;3.50;;;13.20;99.90;;;;;;6105553;29;20476;-62
2022/04/27 09:45:36;;;;;;;4.17;2.80;;;13.20;99.90;;;;;;6105866;29;20469;-63
2022/04/27 09:48:39;;;;;;;3.77;3.47;;;13.00;99.90;;;;;;6106761;29;20508;-62
2022/04/27 09:51:50;;;;;;;6.70;2.97;;;13.30;99.90;;;;;;6129463;29;20472;-62
2022/04/27 09:54:56;;;;;;;3.07;2.77;;;13.40;99.90;;;;;;6130210;29;20480;-64
2022/04/27 09:58:01;;;;;;;4.50;3.27;;;13.50;99.90;;;;;;6129422;29;20995;-62
2022/04/27 10:01:05;;;;;;;5.60;3.60;;;13.70;99.90;;;;;;6128377;29;20823;-62
2022/04/27 10:04:10;;;;;;;3.53;3.23;;;14.00;99.90;;;;;;6128637;29;20471;-62
2022/04/27 10:07:15;;;;;;;3.77;2.80;;;14.30;99.90;;;;;;6128686;29;20483;-62
2022/04/27 10:10:19;;;;;;;4.00;2.97;;;14.40;98.80;;;;;;6128639;29;20475;-63
2022/04/27 10:13:24;;;;;;;3.93;2.97;;;14.70;98.60;;;;;;6128303;29;20478;-63
2022/04/27 10:16:28;;;;;;;2.90;2.60;;;14.70;98.10;;;;;;6128592;29;20488;-63
2022/04/27 10:19:37;;;;;;;3.37;3.07;;;14.80;97.50;;;;;;6128669;29;20627;-63
2022/04/27 10:22:42;;;;;;;3.90;3.50;;;14.80;97.20;;;;;;6127304;29;20483;-63
2022/04/27 10:26:07;;;;;;;3.77;3.47;;;15.00;97.40;;;;;;6127622;29;20482;-61
2022/04/27 10:29:12;;;;;;;3.80;3.37;;;15.10;96.90;;;;;;6127903;29;20455;-63
2022/04/27 10:32:35;;;;;;;3.33;3.03;;;15.10;96.20;;;;;;6127758;29;20424;-63
2022/04/27 10:35:38;;;;;;;3.67;3.37;;;15.40;96.70;;;;;;6127831;29;20475;-63
2022/04/27 10:38:43;;;;;;;3.17;2.87;;;15.50;95.70;;;;;;6128205;29;20476;-62
2022/04/27 10:41:53;;;;;;;4.23;3.50;;;15.50;96.00;;;;;;6118602;29;20483;-62
2022/04/27 10:45:10;;;;;;;3.37;3.10;;;15.70;95.20;;;;;;6127837;29;20797;-62
2022/04/27 10:48:17;;;;;;;4.50;2.93;;;15.60;94.50;;;;;;6128232;29;20478;-63
2022/04/27 10:51:21;;;;;;;5.60;3.40;;;15.80;94.70;;;;;;6128516;29;20949;-63
2022/04/27 10:54:29;;;;;;;4.33;3.97;;;15.80;93.50;;;;;;6131870;29;20514;-64
2022/04/27 10:57:41;;;;;;;3.93;3.50;;;15.90;93.20;;;;;;6130632;29;20484;-62
2022/04/27 11:01:24;;;;;;;4.30;3.90;;;16.10;93.20;;;;;;6128142;29;20468;-62
2022/04/27 11:04:33;;;;;;;5.30;3.70;;;16.30;92.80;;;;;;6127885;29;20523;-63
2022/04/27 11:07:41;;;;;;;7.33;4.20;;;16.50;92.20;;;;;;6127972;29;20484;-62
2022/04/27 11:10:45;;;;;;;4.60;3.97;;;16.30;91.20;;;;;;6127743;29;20480;-62
2022/04/27 11:13:49;;;;;;;4.87;3.77;;;16.30;92.10;;;;;;6129833;29;20482;-62
2022/04/27 11:16:52;;;;;;;3.20;3.00;;;16.50;92.20;;;;;;6132103;29;20513;-63
2022/04/27 11:19:55;;;;;;;3.47;3.17;;;16.70;91.50;;;;;;6132259;29;20490;-63
2022/04/27 11:22:59;;;;;;;4.50;3.00;;;16.70;90.70;;;;;;6131806;29;20836;-63
2022/04/27 11:26:04;;;;;;;4.10;3.40;;;16.60;90.20;;;;;;6132235;29;20475;-62
2022/04/27 11:29:07;;;;;;;3.67;3.37;;;16.70;90.60;;;;;;6131563;29;20963;-61
2022/04/27 11:32:12;;;;;;;3.63;3.07;;;16.80;89.70;;;;;;6132001;29;20542;-64
2022/04/27 11:35:15;;;;;;;2.93;2.63;;;17.00;89.10;;;;;;6133291;29;20447;-62
2022/04/27 11:38:19;;;;;;;3.63;3.33;;;17.30;89.10;;;;;;6132282;29;20448;-62
2022/04/27 11:41:25;;;;;;;3.60;3.33;;;17.70;89.50;;;;;;6131888;29;20911;-62
2022/04/27 11:44:29;;;;;;;4.47;3.57;;;18.10;89.10;;;;;;6126932;29;20563;-62
2022/04/27 11:47:34;;;;;;;3.67;3.37;;;18.40;84.00;;;;;;6131482;29;20490;-62
2022/04/27 11:50:38;;;;;;;3.80;3.33;;;18.30;84.30;;;;;;6131394;29;20475;-62
2022/04/27 11:53:47;;;;;;;2.93;2.73;;;18.30;83.40;;;;;;6131876;29;20503;-61
2022/04/27 11:56:59;;;;;;;3.83;3.40;;;18.30;82.90;;;;;;6131510;29;20478;-61
2022/04/27 12:00:05;;;;;;;4.07;2.63;;;18.30;82.20;;;;;;6130276;29;20494;-61
2022/04/27 12:03:09;;;;;;;3.53;3.20;;;18.30;81.80;;;;;;6129656;29;20563;-62
2022/04/27 12:06:18;;;;;;;3.97;3.37;;;18.20;80.10;;;;;;6129912;29;20471;-61
2022/04/27 12:09:21;;;;;;;3.43;3.10;;;18.30;79.30;;;;;;6129963;29;20472;-62
2022/04/27 12:12:27;;;;;;;5.60;2.80;;;18.30;78.00;;;;;;6130058;29;20490;-62
2022/04/27 12:15:31;;;;;;;2.70;2.50;;;18.20;78.40;;;;;;6131590;29;20479;-62
2022/04/27 12:18:34;;;;;;;3.40;3.10;;;18.10;77.90;;;;;;6132655;29;20666;-61
2022/04/27 12:21:37;;;;;;;3.03;2.83;;;18.10;78.80;;;;;;6131704;29;20471;-61
2022/04/27 12:24:44;;;;;;;3.90;2.40;;;17.90;76.40;;;;;;6130631;29;20964;-61
2022/04/27 12:27:50;;;;;;;3.17;2.97;;;17.60;76.50;;;;;;6130452;29;20491;-62
2022/04/27 12:30:55;;;;;;;3.40;2.57;;;17.40;77.60;;;;;;6130969;29;20483;-63
2022/04/27 12:33:59;;;;;;;2.50;2.30;;;17.40;79.20;;;;;;6130718;29;20827;-63
2022/04/27 12:40:26;;;;;;;3.30;3.07;;;17.50;78.10;;;;;;6130598;29;20483;-62
2022/04/27 12:43:32;;;;;;;3.03;2.80;;;17.50;79.80;;;;;;6130367;29;20480;-62
2022/04/27 12:46:35;;;;;;;2.90;2.70;;;17.30;79.90;;;;;;6130409;29;20475;-63
2022/04/27 12:49:40;;;;;;;2.53;2.33;;;17.20;81.60;;;;;;6121445;29;20551;-61
2022/04/27 12:52:45;;;;;;;3.10;2.80;;;17.30;82.30;;;;;;6093114;29;20496;-64
2022/04/27 12:56:02;;;;;;;3.50;3.30;;;17.30;81.50;;;;;;6106759;29;20562;-62
2022/04/27 12:59:08;;;;;;;2.93;2.73;;;17.30;84.40;;;;;;6106256;29;20513;-63
2022/04/27 13:02:12;;;;;;;3.30;3.00;;;17.20;86.10;;;;;;6107104;29;20449;-63
2022/04/27 13:05:15;;;;;;;4.90;3.03;;;17.10;84.40;;;;;;6127029;29;20464;-61
2022/04/27 13:08:19;;;;;;;5.00;3.50;;;17.00;84.40;;;;;;6129670;29;20467;-62
2022/04/27 13:14:44;;;;;;;3.90;3.00;;;16.50;87.70;;;;;;6130259;29;20565;-62
2022/04/27 13:17:47;;;;;;;2.80;2.60;;;16.30;90.10;;;;;;6136934;29;20986;-62
2022/04/27 13:20:51;;;;;;;3.33;3.03;;;16.20;90.50;;;;;;6131420;29;20827;-62
2022/04/27 13:23:54;;;;;;;3.40;3.10;;;16.00;91.10;;;;;;6129460;29;20480;-62
2022/04/27 13:26:57;;;;;;;3.40;3.10;;;15.60;92.00;;;;;;6129746;29;20482;-62
2022/04/27 13:30:02;;;;;;;3.57;3.27;;;15.50;93.10;;;;;;6129268;29;20538;-63
2022/04/27 13:33:05;;;;;;;4.63;3.87;;;15.30;94.10;;;;;;6129294;29;20479;-63
2022/04/27 13:36:09;;;;;;;3.63;3.37;;;15.30;94.60;;;;;;6128475;29;20480;-63
2022/04/27 13:39:12;;;;;;;4.80;4.00;;;15.20;94.60;;;;;;6129838;29;21028;-64
2022/04/27 13:42:15;;;;;;;5.20;3.90;;;15.00;95.00;;;;;;6129587;29;20599;-63
2022/04/27 13:45:20;;;;;;;5.73;3.63;;;14.90;96.10;;;;;;6128738;29;20482;-63
2022/04/27 13:48:23;;;;;;;5.00;4.60;;;14.90;97.10;;;;;;6128985;29;20511;-63
2022/04/27 13:51:26;;;;;;;4.57;4.27;;;14.80;97.50;;;;;;6128942;29;20812;-63
2022/04/27 13:54:29;;;;;;;4.20;3.90;;;14.70;98.50;;;;;;6119496;29;20483;-63
2022/04/27 13:57:33;;;;;;;4.73;4.43;;;14.60;99.30;;;;;;6128599;29;20491;-62
2022/04/27 14:00:38;;;;;;;4.77;4.40;;;14.50;99.90;;;;;;6128830;29;20527;-62
2022/04/27 14:03:41;;;;;;;5.07;4.43;;;14.40;99.70;;;;;;6128640;29;20494;-62
2022/04/27 14:06:45;;;;;;;4.10;3.80;;;14.40;99.90;;;;;;6128523;29;20550;-62
2022/04/27 14:09:49;;;;;;;4.67;4.27;;;14.30;99.90;;;;;;6119131;29;20534;-62
2022/04/27 14:19:43;;;;;;;3.97;3.67;;;14.30;99.90;;;;;;6105669;29;20483;-62
2022/04/27 14:22:47;;;;;;;4.07;3.73;;;14.30;99.90;;;;;;6127714;29;20488;-62
2022/04/27 14:25:51;;;;;;;6.20;3.67;;;14.20;99.90;;;;;;6128515;29;20472;-62
2022/04/27 14:28:54;;;;;;;3.80;3.57;;;14.00;99.90;;;;;;6128138;29;20472;-62
2022/04/27 14:32:01;;;;;;;3.77;3.47;;;13.90;99.90;;;;;;6127993;29;20830;-62
2022/04/27 14:35:07;;;;;;;3.90;3.50;;;13.70;99.90;;;;;;6127800;29;20537;-62
2022/04/27 14:38:11;;;;;;;4.07;3.77;;;13.30;99.90;;;;;;6127827;29;20514;-62
2022/04/27 14:41:16;;;;;;;4.97;3.00;;;13.30;99.90;;;;;;6127659;29;20463;-61
2022/04/27 14:44:20;;;;;;;3.10;2.90;;;13.30;99.90;;;;;;6127810;29;20470;-61
2022/04/27 14:47:24;;;;;;;2.77;2.40;;;13.40;99.90;;;;;;6128101;29;20491;-61
2022/04/27 14:50:27;;;;;;;2.70;2.50;;;13.40;99.90;;;;;;6112921;29;20479;-62
2022/04/27 14:53:30;;;;;;;2.73;2.53;;;13.40;99.90;;;;;;6105173;29;20491;-62
2022/04/27 14:56:33;;;;;;;4.83;4.43;;;13.50;99.90;;;;;;6099706;29;20787;-62
2022/04/27 14:59:37;;;;;;;2.60;2.40;;;13.50;99.90;;;;;;6112609;29;20479;-63
2022/04/27 15:02:49;;;;;;;2.80;2.60;;;13.60;99.90;;;;;;6121562;29;20498;-61
2022/04/27 15:05:52;;;;;;;3.40;3.10;;;13.60;99.90;;;;;;6128915;29;20527;-63
2022/04/27 15:08:56;;;;;;;2.27;2.07;;;13.60;99.90;;;;;;6127534;29;20816;-62
2022/04/27 15:12:05;;;;;;;1.80;1.70;;;13.60;99.90;;;;;;6128145;29;20487;-62
2022/04/27 15:15:08;;;;;;;2.43;2.20;;;13.50;99.90;;;;;;6127993;29;20486;-62
2022/04/27 15:18:14;;;;;;;3.10;2.43;;;13.50;99.90;;;;;;6128291;29;20475;-62
2022/04/27 15:24:38;;;;;;;4.13;2.30;;;13.30;99.90;;;;;;6127778;29;20502;-62
2022/04/27 15:27:42;;;;;;;2.23;2.03;;;13.20;99.90;;;;;;6127999;29;20988;-63
2022/04/27 15:30:46;;;;;;;3.00;2.80;;;13.20;99.90;;;;;;6127842;29;20498;-62
2022/04/27 15:33:52;;;;;;;3.27;3.00;;;13.20;99.80;;;;;;6127485;29;20480;-64
2022/04/27 15:36:55;;;;;;;3.10;2.80;;;13.10;98.90;;;;;;6127524;29;20476;-62
2022/04/27 15:39:58;;;;;;;3.90;3.60;;;13.10;98.80;;;;;;6127139;29;20498;-61
2022/04/27 15:43:04;;;;;;;4.53;4.13;;;13.00;98.90;;;;;;6127595;29;20483;-60
2022/04/27 15:46:23;;;;;;;4.80;4.37;;;13.00;99.10;;;;;;6126998;29;20476;-61
2022/04/27 15:49:28;;;;;;;4.90;4.37;;;13.00;99.20;;;;;;6127663;29;20471;-63
2022/04/27 15:52:31;;;;;;;5.13;4.63;;;13.00;99.00;;;;;;6126001;29;20483;-62
2022/04/27 15:55:35;;;;;;;5.80;5.30;;;13.10;98.90;;;;;;6126022;29;20992;-62
2022/04/27 15:58:38;;;;;;;6.60;6.00;;;13.10;98.90;;;;;;6125721;29;20999;-62
2022/04/27 16:01:42;;;;;;;5.77;5.37;;;13.10;97.80;;;;;;6130299;29;20479;-63
2022/04/27 16:04:46;;;;;;;6.40;6.00;;;13.00;97.30;;;;;;6130129;29;20626;-62
2022/04/27 16:07:50;;;;;;;8.43;5.87;;;13.00;96.20;;;;;;6131265;29;20468;-62
2022/04/27 16:10:53;;;;;;;7.37;6.70;;;13.00;96.30;;;;;;6130851;29;20480;-64
2022/04/27 16:13:56;;;;;;;6.17;5.77;;;13.00;96.20;;;;;;6130936;29;20483;-62
2022/04/27 16:17:00;;;;;;;6.63;6.17;;;13.00;96.00;;;;;;6131491;29;20486;-64
2022/04/27 16:20:05;;;;;;;7.10;6.60;;;12.90;95.70;;;;;;6131224;29;20486;-65
2022/04/27 16:23:07;;;;;;;7.00;6.50;;;13.00;95.60;;;;;;6131519;29;20487;-64
2022/04/27 16:26:11;;;;;;;6.80;6.30;;;12.90;95.40;;;;;;6130860;29;20923;-65
2022/04/27 16:29:14;;;;;;;6.63;6.13;;;13.00;94.90;;;;;;6131355;29;20450;-63
2022/04/27 16:32:17;;;;;;;7.43;6.83;;;12.90;94.70;;;;;;6131431;29;20447;-63
2022/04/27 16:35:22;;;;;;;6.90;6.40;;;13.00;94.40;;;;;;6130408;29;20444;-65